Thursday, January 17, 2019, 8:09 PM CST
Back to Local

KC09, Morris, Morris Municipal-james R Washburn Field Airport

Location: Morris, IL, United States Lat: 41.425
Local Time: 8:09 PM CST ( 2:09 GMT) Lon: -88.419
Time Zone: US/Central Elev: 583 ft

Show me the last for .
Show Decoded

2019-01-17 19:35 METAR KC09 180135Z AUTO 30006KT 5SM BR OVC019 00/M01 A3006 RMK AO2 T00001008 =
2019-01-17 19:15 METAR KC09 180115Z AUTO 30007KT 5SM BR SCT010 OVC019 00/M01 A3006 RMK AO2
                 T00001007 =
2019-01-17 18:55 METAR KC09 180055Z AUTO 30009KT 4SM BR OVC010 00/00 A3006 RMK AO2 T00001005 =
2019-01-17 18:35 METAR KC09 180035Z AUTO 30010KT 5SM BR SCT010 OVC020 00/M01 A3005 RMK AO2
                 T00001006 =
2019-01-17 18:15 METAR KC09 180015Z AUTO 30006KT 5SM BR SCT010 OVC020 00/M01 A3004 RMK AO2
                 T00011006 =
2019-01-17 17:55 METAR KC09 172355Z AUTO 30008KT 5SM BR SCT010 OVC020 00/00 A3004 RMK AO2
                 T00011005 10006 20000 =
2019-01-17 17:35 METAR KC09 172335Z AUTO 30007KT 5SM BR SCT012 OVC018 00/00 A3003 RMK AO2
                 T00011005 =
2019-01-17 17:15 METAR KC09 172315Z AUTO 29004KT 5SM BR BKN012 OVC020 00/00 A3001 RMK AO2
                 T00021003 =
2019-01-17 16:55 METAR KC09 172255Z AUTO 29004KT 4SM BR OVC010 00/00 A3001 RMK AO2 T00021003 =
2019-01-17 16:35 METAR KC09 172235Z AUTO 29004KT 4SM BR BKN010 OVC021 00/00 A3001 RMK AO2
                 T00021005 =
2019-01-17 16:15 METAR KC09 172215Z AUTO 29006KT 4SM BR OVC010 00/00 A3002 RMK AO2 T00031004 =
2019-01-17 15:55 METAR KC09 172155Z AUTO 30006KT 5SM BR OVC010 01/00 A3002 RMK AO2 T00051005 =
2019-01-17 15:35 METAR KC09 172135Z AUTO 30006KT 5SM BR OVC010 01/00 A3001 RMK AO2 T00051004 =
2019-01-17 15:15 METAR KC09 172115Z AUTO 30005KT 5SM BR OVC008 01/00 A3001 RMK AO2 T00051003 =
2019-01-17 14:55 METAR KC09 172055Z AUTO 29005KT 4SM BR OVC008 00/00 A3000 RMK AO2 T00041005 =
2019-01-17 14:35 METAR KC09 172035Z AUTO 29004KT 4SM BR OVC006 00/00 A2999 RMK AO2 T00031005 =
2019-01-17 14:15 METAR KC09 172015Z AUTO 31003KT 4SM BR OVC006 00/M01 A3000 RMK AO2 T00021006 =
2019-01-17 13:55 METAR KC09 171955Z AUTO 31003KT 3SM BR OVC006 00/M01 A3000 RMK AO2 T00011006 =
2019-01-17 13:35 METAR KC09 171935Z AUTO 33003KT 3SM BR OVC006 00/M01 A3000 RMK AO2 T00011006 =
2019-01-17 13:15 METAR KC09 171915Z AUTO 00000KT 3SM BR OVC004 00/M01 A3000 RMK AO2 T00021006 =
2019-01-17 12:55 METAR KC09 171855Z AUTO 00000KT 3SM BR OVC004 00/M01 A3001 RMK AO2 T00011006 =
2019-01-17 12:35 METAR KC09 171835Z AUTO 00000KT 3SM BR OVC004 00/M01 A3001 RMK AO2 T00001008 =
2019-01-17 12:15 METAR KC09 171815Z AUTO 00000KT 3SM BR OVC004 00/M01 A3002 RMK AO2 T00001008 =
2019-01-17 11:55 METAR KC09 171755Z AUTO 00000KT 2 1/2SM BR OVC004 00/M01 A3004 RMK AO2 T00001007
                 10000 21017 =
2019-01-17 11:35 METAR KC09 171735Z AUTO 00000KT 2 1/2SM BR OVC004 00/M01 A3005 RMK AO2 T10011007
                 =
2019-01-17 11:15 METAR KC09 171715Z AUTO 05003KT 2 1/2SM BR OVC004 00/M01 A3006 RMK AO2 T10051010
                 =
2019-01-17 10:55 METAR KC09 171655Z AUTO 05003KT 1 3/4SM BR OVC004 00/M01 A3007 RMK AO2 T10051009
                 =
2019-01-17 10:35 METAR KC09 171635Z AUTO 03003KT 1 3/4SM BR OVC004 M01/M01 A3009 RMK AO2
                 T10071011 =
2019-01-17 10:15 METAR KC09 171615Z AUTO 02004KT 1 1/2SM BR OVC004 M01/M01 A3009 RMK AO2
                 T10101013 =
2019-01-17 09:55 METAR KC09 171555Z AUTO 04003KT 1 1/4SM BR OVC004 M01/M01 A3009 RMK AO2
                 T10111015 =
2019-01-17 09:35 METAR KC09 171535Z AUTO 04003KT 1 1/4SM BR OVC004 M01/M02 A3008 RMK AO2
                 T10131016 =
2019-01-17 09:15 METAR KC09 171515Z AUTO 03003KT 1 1/4SM BR OVC006 M01/M02 A3008 RMK AO2
                 T10131017 =
2019-01-17 08:55 METAR KC09 171455Z AUTO 02003KT 1 3/4SM BR OVC008 M01/M02 A3008 RMK AO2
                 T10131020 =
2019-01-17 08:35 METAR KC09 171435Z AUTO 00000KT 3SM BR OVC008 M01/M02 A3008 RMK AO2 T10151022 =
2019-01-17 08:15 METAR KC09 171415Z AUTO 00000KT 4SM BR OVC008 M01/M02 A3008 RMK AO2 T10151025 =
2019-01-17 07:55 METAR KC09 171355Z AUTO 00000KT 4SM BR OVC008 M02/M03 A3008 RMK AO2 T10161027 =
2019-01-17 07:35 METAR KC09 171335Z AUTO 00000KT 5SM BR OVC008 M02/M03 A3008 RMK AO2 T10161028 =
2019-01-17 07:15 METAR KC09 171315Z AUTO 07004KT 7SM OVC008 M02/M03 A3008 RMK AO2 T10161030 =
2019-01-17 06:55 METAR KC09 171255Z AUTO 08005KT 7SM OVC008 M02/M03 A3008 RMK AO2 T10171032 =
2019-01-17 06:40 METAR KC09 171240Z AUTO 08005KT 7SM OVC010 M02/M03 A3008 RMK AO2 T10161033 =
2019-01-17 06:15 METAR KC09 171215Z AUTO 09006KT 10SM OVC010 M02/M04 A3009 RMK AO2 T10161036 =
2019-01-17 05:55 METAR KC09 171155Z AUTO 10005KT 10SM OVC010 M02/M04 A3009 RMK AO2 T10161039
                 11014 21016 =
2019-01-17 05:35 METAR KC09 171135Z AUTO 09005KT 10SM OVC010 M01/M04 A3009 RMK AO2 T10151040 =
2019-01-17 05:15 METAR KC09 171115Z AUTO 09006KT 10SM OVC010 M02/M04 A3010 RMK AO2 T10161043 =
2019-01-17 04:55 METAR KC09 171055Z AUTO 09006KT 10SM OVC012 M01/M04 A3011 RMK AO2 T10151045 =
2019-01-17 04:35 METAR KC09 171035Z AUTO 08006KT 10SM OVC012 M01/M05 A3012 RMK AO2 T10151046 =
2019-01-17 04:15 METAR KC09 171015Z AUTO 08005KT 10SM OVC012 M01/M05 A3013 RMK AO2 T10151048 =
2019-01-17 03:55 METAR KC09 170955Z AUTO 07004KT 10SM OVC014 M01/M05 A3014 RMK AO2 T10151048 =
2019-01-17 03:35 METAR KC09 170935Z AUTO 07004KT 10SM OVC016 M01/M05 A3015 RMK AO2 T10151047 =
2019-01-17 03:15 METAR KC09 170915Z AUTO 08005KT 10SM OVC016 M01/M05 A3016 RMK AO2 T10151046 =
2019-01-17 02:55 METAR KC09 170855Z AUTO 08006KT 10SM OVC016 M01/M05 A3017 RMK AO2 T10151046 =
2019-01-17 02:35 METAR KC09 170835Z AUTO 08005KT 10SM OVC018 M01/M05 A3018 RMK AO2 T10151047 =
2019-01-17 02:15 METAR KC09 170815Z AUTO 08006KT 10SM OVC018 M01/M05 A3018 RMK AO2 T10151047 =
2019-01-17 01:55 METAR KC09 170755Z AUTO 08006KT 10SM OVC020 M01/M05 A3018 RMK AO2 T10151046 =
2019-01-17 01:35 METAR KC09 170735Z AUTO 09007KT 10SM OVC024 M01/M05 A3018 RMK AO2 T10151046 =
2019-01-17 01:15 METAR KC09 170715Z AUTO 09006KT 10SM OVC026 M01/M04 A3018 RMK AO2 T10151044 =
2019-01-17 00:55 METAR KC09 170655Z AUTO 08006KT 10SM OVC026 M01/M04 A3018 RMK AO2 T10151043 =
2019-01-17 00:35 METAR KC09 170635Z AUTO 09008KT 10SM OVC026 M01/M05 A3020 RMK AO2 T10151046 =
2019-01-17 00:15 METAR KC09 170615Z AUTO 09009KT 10SM OVC026 M01/M05 A3020 RMK AO2 T10151046 =
2019-01-16 23:55 METAR KC09 170555Z AUTO 09010KT 10SM OVC026 M01/M05 A3021 RMK AO2 T10141046
                 10000 21015 400111015 =
2019-01-16 23:35 METAR KC09 170535Z AUTO 09007KT 10SM OVC028 M01/M04 A3022 RMK AO2 T10151043 =
2019-01-16 23:15 METAR KC09 170515Z AUTO 08008KT 10SM OVC028 M01/M04 A3022 RMK AO2 T10131045 =
2019-01-16 22:55 METAR KC09 170455Z AUTO 08007KT 10SM OVC030 M01/M04 A3023 RMK AO2 T10111043 =
2019-01-16 22:35 METAR KC09 170435Z AUTO 09010KT 10SM OVC030 M01/M04 A3023 RMK AO2 T10111043 =
2019-01-16 22:15 METAR KC09 170415Z AUTO 09009KT 10SM OVC030 M01/M04 A3023 RMK AO2 T10101042 =
2019-01-16 21:55 METAR KC09 170355Z AUTO 09009KT 10SM OVC032 M01/M04 A3023 RMK AO2 T10101043 =
2019-01-16 21:35 METAR KC09 170335Z AUTO 09009KT 10SM OVC032 M01/M04 A3023 RMK AO2 T10101041 =
2019-01-16 21:15 METAR KC09 170315Z AUTO 09008KT 10SM OVC032 M01/M04 A3023 RMK AO2 T10101038 =
2019-01-16 20:55 METAR KC09 170255Z AUTO 08009KT 10SM OVC032 M01/M04 A3023 RMK AO2 T10091037 =
2019-01-16 20:35 METAR KC09 170235Z AUTO 09009KT 10SM OVC032 M01/M04 A3023 RMK AO2 T10081036 =
2019-01-16 20:15 METAR KC09 170215Z AUTO 09007KT 10SM OVC032 M01/M03 A3024 RMK AO2 T10081035 =

Support USWX by starting your Amazon purchase here.